Time;durP1;ratioP1;P1;durP2;ratioP2;P2;SDS_P1;SDS_P2;PMS_P1;PMS_P2;Temp;Humidity;BMP_temperature;BMP_pressure;BME280_temperature;BME280_humidity;BME280_pressure;Samples;Min_cycle;Max_cycle;Signal;HPM_P1;HPM_P2
2022/08/10 00:00:50;;;;;;;2.83;2.37;;;;;;;18.85;66.76;100259.84;1710008;83;21527;-69
2022/08/10 00:03:16;;;;;;;4.50;2.87;;;;;;;18.83;66.83;100262.84;1710347;83;21211;-68
2022/08/10 00:05:45;;;;;;;7.78;3.02;;;;;;;18.80;66.83;100262.05;1709833;83;20985;-68
2022/08/10 00:08:12;;;;;;;4.47;3.00;;;;;;;18.82;66.74;100257.68;1678379;83;21499;-68
2022/08/10 00:10:38;;;;;;;4.37;2.75;;;;;;;18.82;66.86;100253.59;1670528;85;21690;-70
2022/08/10 00:13:07;;;;;;;4.72;2.20;;;;;;;18.81;66.99;100250.59;1677119;84;21026;-68
2022/08/10 00:15:34;;;;;;;6.17;3.22;;;;;;;18.81;67.00;100253.32;1671933;85;21592;-70
2022/08/10 00:18:03;;;;;;;9.90;2.85;;;;;;;18.79;67.08;100255.00;1670359;83;21025;-68
2022/08/10 00:20:29;;;;;;;10.32;3.08;;;;;;;18.76;66.90;100257.47;1668810;86;20996;-69
2022/08/10 00:22:58;;;;;;;4.80;3.30;;;;;;;18.77;66.95;100253.10;1668751;84;20949;-69
2022/08/10 00:25:25;;;;;;;4.85;2.72;;;;;;;18.76;67.04;100254.19;1672029;85;21139;-70
2022/08/10 00:27:51;;;;;;;3.12;2.37;;;;;;;18.76;67.00;100249.29;1674843;83;21157;-69
2022/08/10 00:30:19;;;;;;;4.17;2.15;;;;;;;18.75;67.28;100249.05;1668631;84;21077;-69
2022/08/10 00:32:46;;;;;;;2.75;1.98;;;;;;;18.75;67.50;100247.14;1668652;85;21024;-70
2022/08/10 00:35:13;;;;;;;3.67;3.05;;;;;;;18.73;67.62;100240.61;1670807;84;21049;-69
2022/08/10 00:37:39;;;;;;;3.55;1.75;;;;;;;18.72;67.62;100237.62;1678616;83;21136;-68
2022/08/10 00:40:08;;;;;;;1.52;1.42;;;;;;;18.69;67.94;100250.47;1673695;84;21166;-70
2022/08/10 00:42:35;;;;;;;2.25;2.05;;;;;;;18.69;68.04;100249.66;1678786;84;22515;-70
2022/08/10 00:45:02;;;;;;;2.25;2.00;;;;;;;18.71;68.09;100253.70;1673119;85;21007;-69
2022/08/10 00:47:29;;;;;;;2.95;2.02;;;;;;;18.68;68.28;100250.20;1677887;83;21474;-69
2022/08/10 00:49:56;;;;;;;5.20;1.95;;;;;;;18.69;68.33;100246.93;1695896;83;21072;-69
2022/08/10 00:52:24;;;;;;;2.15;1.85;;;;;;;18.69;68.45;100249.11;1692078;83;21320;-69
2022/08/10 00:54:50;;;;;;;2.37;1.95;;;;;;;18.68;68.67;100242.03;1676063;83;21052;-70
2022/08/10 00:57:19;;;;;;;4.12;2.00;;;;;;;18.68;68.89;100241.22;1691833;83;21072;-69
2022/08/10 00:59:46;;;;;;;5.30;1.95;;;;;;;18.65;69.07;100246.71;1709886;84;21389;-70
2022/08/10 01:02:13;;;;;;;4.28;2.45;;;;;;;18.66;69.19;100246.12;1710036;83;20985;-70
2022/08/10 01:04:39;;;;;;;15.83;4.53;;;;;;;18.65;69.40;100243.98;1709799;84;21065;-68
2022/08/10 01:07:54;;;;;;;10.08;4.25;;;;;;;18.65;69.77;100237.17;1705347;83;21012;-68
2022/08/10 01:10:39;;;;;;;6.17;3.65;;;;;;;18.65;69.90;100246.71;1688385;84;20968;-68
2022/08/10 01:13:39;;;;;;;7.17;2.72;;;;;;;18.64;70.19;100241.54;1674491;84;21119;-68
2022/08/10 01:16:19;;;;;;;4.55;2.92;;;;;;;18.59;70.45;100236.95;1695486;83;21738;-69
2022/08/10 01:19:16;;;;;;;4.17;2.30;;;;;;;18.52;70.84;100235.08;1743998;82;22339;-68
2022/08/10 01:22:00;;;;;;;2.45;2.25;;;;;;;18.50;71.04;100241.94;1745201;82;21027;-68
2022/08/10 01:25:04;;;;;;;2.33;2.12;;;;;;;18.49;71.25;100239.75;1746183;82;21031;-70
2022/08/10 01:27:35;;;;;;;;;;;;;;;18.48;71.47;100238.67;1696325;82;21028;-67
2022/08/10 01:30:10;;;;;;;2.08;1.82;;;;;;;18.41;71.97;100236.31;1705089;84;20236;-66
2022/08/10 01:32:52;;;;;;;3.95;1.90;;;;;;;18.38;72.32;100231.97;1705066;82;21129;-71
2022/08/10 01:35:35;;;;;;;1.87;1.77;;;;;;;18.38;72.48;100237.41;1702957;84;21001;-68
2022/08/10 01:38:19;;;;;;;1.40;1.30;;;;;;;18.41;72.55;100243.67;1726475;81;22103;-70
2022/08/10 01:40:56;;;;;;;5.67;2.42;;;;;;;18.42;72.62;100242.55;1725511;81;26591;-68
2022/08/10 01:43:24;;;;;;;1.82;1.72;;;;;;;18.41;72.81;100230.86;1717655;83;21082;-67
2022/08/10 01:45:53;;;;;;;1.72;1.62;;;;;;;18.41;72.95;100240.94;1701622;83;21251;-68
2022/08/10 01:48:29;;;;;;;1.95;1.70;;;;;;;18.40;73.19;100240.67;1728405;81;20964;-67
2022/08/10 01:51:13;;;;;;;1.75;1.65;;;;;;;18.38;73.34;100234.69;1710188;83;21037;-69
2022/08/10 01:53:46;;;;;;;2.25;2.10;;;;;;;18.33;73.55;100231.47;1683312;83;21552;-68
2022/08/10 01:56:14;;;;;;;2.80;2.10;;;;;;;18.29;73.83;100233.15;1695845;83;20981;-69
2022/08/10 01:58:42;;;;;;;2.92;1.90;;;;;;;18.28;74.14;100235.05;1717376;81;21101;-68
2022/08/10 02:01:12;;;;;;;2.67;2.17;;;;;;;18.28;74.33;100239.69;1695195;82;20999;-69
2022/08/10 02:03:39;;;;;;;1.67;1.57;;;;;;;18.26;74.61;100235.09;1665675;85;20973;-68
2022/08/10 02:06:06;;;;;;;3.33;1.82;;;;;;;18.23;74.77;100231.56;1653503;85;21109;-69
2022/08/10 02:08:33;;;;;;;2.17;1.92;;;;;;;18.19;75.14;100229.16;1674291;83;21028;-67
2022/08/10 02:11:00;;;;;;;2.10;1.90;;;;;;;18.11;75.46;100233.33;1646287;85;21899;-67
2022/08/10 02:13:27;;;;;;;2.87;2.37;;;;;;;18.08;75.70;100229.80;1673636;83;20949;-69
2022/08/10 02:15:54;;;;;;;2.40;2.20;;;;;;;18.04;75.91;100224.66;1675250;85;21078;-68
2022/08/10 02:18:21;;;;;;;4.50;2.17;;;;;;;18.02;76.22;100226.87;1654050;85;21068;-68
2022/08/10 02:20:51;;;;;;;5.22;2.37;;;;;;;18.03;76.37;100233.14;1668961;86;21033;-69
2022/08/10 02:23:26;;;;;;;4.20;2.30;;;;;;;18.03;76.54;100239.40;1668942;84;21568;-67
2022/08/10 02:25:55;;;;;;;2.58;2.33;;;;;;;18.02;76.69;100236.95;1654218;84;21072;-68
2022/08/10 02:28:23;;;;;;;2.10;1.98;;;;;;;17.99;76.86;100241.58;1679228;84;21018;-69
2022/08/10 02:30:52;;;;;;;1.98;1.62;;;;;;;17.95;77.19;100246.79;1656880;86;21152;-68
2022/08/10 02:33:19;;;;;;;2.30;2.10;;;;;;;17.90;77.41;100250.10;1630696;86;21103;-69
2022/08/10 02:35:47;;;;;;;6.20;3.90;;;;;;;17.81;78.05;100241.73;1630579;88;21652;-67
2022/08/10 02:38:17;;;;;;;12.25;6.00;;;;;;;17.74;78.37;100235.28;1632413;84;21513;-68
2022/08/10 02:40:49;;;;;;;11.08;5.75;;;;;;;17.67;78.98;100228.52;1658349;84;21148;-66
2022/08/10 02:43:29;;;;;;;9.83;5.55;;;;;;;17.63;79.26;100233.72;1655394;86;21064;-68
2022/08/10 02:46:07;;;;;;;7.67;3.70;;;;;;;17.61;79.28;100235.89;1656406;86;21120;-69
2022/08/10 02:48:45;;;;;;;7.30;3.90;;;;;;;17.60;79.27;100233.48;1639725;85;21227;-68
2022/08/10 02:51:19;;;;;;;6.03;3.50;;;;;;;17.59;79.35;100231.30;1665771;86;20992;-69
2022/08/10 02:53:51;;;;;;;5.70;3.45;;;;;;;17.59;79.57;100236.73;1657131;86;21154;-68
2022/08/10 02:56:41;;;;;;;6.30;3.17;;;;;;;17.60;79.52;100233.48;1655172;86;20954;-69
2022/08/10 02:59:12;;;;;;;8.38;2.60;;;;;;;17.60;79.62;100234.84;1684687;84;21323;-68
2022/08/10 03:01:45;;;;;;;6.20;2.22;;;;;;;17.57;79.67;100241.61;1689711;84;21243;-68
2022/08/10 03:04:18;;;;;;;4.42;3.20;;;;;;;17.58;79.73;100232.36;1664217;84;21095;-68
2022/08/10 03:06:48;;;;;;;;;;;;;;;17.57;79.79;100232.09;1658931;86;21006;-68
2022/08/10 03:09:16;;;;;;;4.53;2.72;;;;;;;17.56;79.98;100243.23;1681746;84;20182;-68
2022/08/10 03:11:43;;;;;;;2.10;1.90;;;;;;;17.54;80.06;100261.77;1660070;84;21052;-66
2022/08/10 03:14:10;;;;;;;2.00;1.90;;;;;;;17.55;80.15;100271.02;1657139;86;21269;-69
2022/08/10 03:16:37;;;;;;;4.90;3.05;;;;;;;17.55;80.14;100262.04;1656832;86;21136;-69
2022/08/10 03:19:04;;;;;;;9.15;4.85;;;;;;;17.54;80.20;100242.19;1643362;85;21060;-69
2022/08/10 03:21:33;;;;;;;5.92;3.50;;;;;;;17.43;80.73;100235.98;1668787;85;21040;-69
2022/08/10 03:24:01;;;;;;;4.67;3.20;;;;;;;17.35;81.23;100237.95;1664484;86;21503;-69
2022/08/10 03:26:30;;;;;;;2.52;2.33;;;;;;;17.32;81.38;100251.27;1656466;86;21436;-70
2022/08/10 03:28:58;;;;;;;2.58;2.17;;;;;;;17.32;81.50;100248.01;1668351;84;21017;-69
2022/08/10 03:31:27;;;;;;;2.95;2.00;;;;;;;17.31;81.60;100252.39;1674631;84;21038;-69
2022/08/10 03:33:53;;;;;;;4.67;2.02;;;;;;;17.31;81.78;100253.75;1656951;84;21140;-69
2022/08/10 03:36:22;;;;;;;3.22;2.92;;;;;;;17.30;81.80;100251.58;1660892;85;21582;-69
2022/08/10 03:38:50;;;;;;;2.87;2.27;;;;;;;17.30;81.88;100251.58;1662016;85;22385;-68
2022/08/10 03:41:21;;;;;;;3.65;1.92;;;;;;;17.31;81.86;100249.67;1657304;86;21529;-68
2022/08/10 03:43:48;;;;;;;2.10;1.90;;;;;;;17.34;82.07;100249.10;1673862;85;21158;-66
2022/08/10 03:46:19;;;;;;;3.80;2.25;;;;;;;17.36;81.92;100245.56;1678891;85;20913;-68
2022/08/10 03:48:47;;;;;;;1.98;1.87;;;;;;;17.33;82.15;100245.56;1677400;83;22226;-66
2022/08/10 03:51:14;;;;;;;3.15;2.85;;;;;;;17.32;82.05;100248.01;1702376;83;21216;-69
2022/08/10 03:53:41;;;;;;;2.25;2.12;;;;;;;17.29;82.34;100258.09;1711531;82;21060;-68
2022/08/10 03:56:09;;;;;;;5.85;2.40;;;;;;;17.29;82.44;100262.18;1692750;83;20972;-69
2022/08/10 03:58:37;;;;;;;2.83;2.50;;;;;;;17.30;82.41;100268.43;1712172;81;20973;-68
2022/08/10 04:01:04;;;;;;;2.87;2.25;;;;;;;17.25;82.49;100260.30;1719861;83;21032;-68
2022/08/10 04:03:30;;;;;;;2.00;1.85;;;;;;;17.26;82.55;100271.45;1717064;83;21148;-68
2022/08/10 04:05:58;;;;;;;3.22;2.35;;;;;;;17.31;82.51;100265.41;1692658;83;21031;-68
2022/08/10 04:08:24;;;;;;;4.20;2.27;;;;;;;17.34;82.45;100262.15;1692577;82;21063;-69
2022/08/10 04:10:52;;;;;;;2.58;2.35;;;;;;;17.34;82.53;100266.77;1720132;82;21576;-66
2022/08/10 04:13:19;;;;;;;4.83;2.10;;;;;;;17.33;82.50;100271.94;1746740;82;21040;-68
2022/08/10 04:15:46;;;;;;;4.17;2.83;;;;;;;17.33;82.48;100267.31;1720835;81;21813;-68
2022/08/10 04:18:12;;;;;;;7.78;2.02;;;;;;;17.36;82.44;100267.32;1706921;82;21053;-67
2022/08/10 04:20:47;;;;;;;2.12;1.92;;;;;;;17.37;82.38;100261.58;1710076;83;20981;-67
2022/08/10 04:23:19;;;;;;;2.20;2.10;;;;;;;17.36;82.48;100265.96;1668230;84;21517;-67
2022/08/10 04:25:46;;;;;;;3.07;2.80;;;;;;;17.39;82.56;100259.95;1668760;85;21044;-68
2022/08/10 04:28:13;;;;;;;3.98;2.83;;;;;;;17.42;82.57;100258.83;1675882;83;21176;-69
2022/08/10 04:30:40;;;;;;;6.05;2.22;;;;;;;17.44;82.47;100252.58;1680470;83;21033;-69
2022/08/10 04:33:07;;;;;;;2.22;2.02;;;;;;;17.44;82.60;100250.41;1688372;83;21066;-69
2022/08/10 04:35:34;;;;;;;3.42;2.20;;;;;;;17.44;82.66;100243.06;1711394;83;21065;-71
2022/08/10 04:38:02;;;;;;;2.27;2.08;;;;;;;17.47;82.97;100234.05;1669435;84;21122;-69
2022/08/10 04:40:31;;;;;;;7.10;2.37;;;;;;;17.46;82.91;100237.89;1662224;85;21123;-69
2022/08/10 04:43:01;;;;;;;2.65;2.45;;;;;;;17.47;82.91;100231.33;1658199;86;21190;-68
2022/08/10 04:45:28;;;;;;;3.37;1.92;;;;;;;17.49;82.98;100236.77;1656438;86;21044;-68
2022/08/10 04:47:55;;;;;;;2.42;2.22;;;;;;;17.55;82.90;100244.36;1653528;84;21076;-69
2022/08/10 04:50:25;;;;;;;10.95;4.42;;;;;;;17.62;82.76;100254.39;1688762;84;21125;-68
2022/08/10 04:52:53;;;;;;;5.12;2.35;;;;;;;17.67;82.57;100262.52;1661255;84;21100;-68
2022/08/10 04:55:20;;;;;;;3.05;1.92;;;;;;;17.76;82.44;100264.90;1656398;86;21038;-68
2022/08/10 04:57:47;;;;;;;4.62;2.80;;;;;;;17.84;82.19;100263.74;1634402;84;21045;-70
2022/08/10 05:00:16;;;;;;;5.62;2.42;;;;;;;17.94;81.70;100269.66;1710225;83;21065;-68
2022/08/10 05:02:43;;;;;;;2.27;1.82;;;;;;;18.01;81.42;100265.27;1684757;83;21120;-69
2022/08/10 05:05:10;;;;;;;2.50;1.90;;;;;;;18.06;80.92;100270.66;1712056;83;21921;-69
2022/08/10 05:07:37;;;;;;;2.00;1.87;;;;;;;18.06;80.87;100267.40;1708860;83;21127;-71
2022/08/10 05:10:07;;;;;;;4.30;2.10;;;;;;;18.05;80.89;100267.13;1695310;83;21584;-68
2022/08/10 05:12:37;;;;;;;2.62;1.98;;;;;;;18.08;80.94;100265.77;1709530;83;21112;-69
2022/08/10 05:15:10;;;;;;;10.45;6.35;;;;;;;18.12;80.75;100259.45;1710021;84;21018;-68
2022/08/10 05:17:36;;;;;;;3.77;2.50;;;;;;;18.18;80.87;100262.92;1683071;83;21073;-67
2022/08/10 05:20:06;;;;;;;5.58;2.37;;;;;;;18.27;80.64;100259.30;1710791;82;21528;-68
2022/08/10 05:22:42;;;;;;;2.35;2.15;;;;;;;18.38;80.25;100260.56;1712692;83;21612;-67
2022/08/10 05:25:12;;;;;;;3.95;2.15;;;;;;;18.41;79.68;100254.56;1712267;83;21124;-67
2022/08/10 05:27:40;;;;;;;5.42;2.30;;;;;;;18.44;79.71;100260.23;1712252;83;21076;-69
2022/08/10 05:30:09;;;;;;;2.85;2.22;;;;;;;18.49;79.84;100254.74;1692417;83;21203;-69
2022/08/10 05:32:36;;;;;;;5.60;1.92;;;;;;;18.56;79.70;100256.59;1711587;83;21302;-69
2022/08/10 05:35:04;;;;;;;2.95;2.25;;;;;;;18.63;79.40;100262.52;1706747;83;21594;-69
2022/08/10 05:37:32;;;;;;;4.65;2.22;;;;;;;18.69;79.19;100263.28;1647984;86;21069;-69
2022/08/10 05:39:59;;;;;;;2.83;2.25;;;;;;;18.74;78.68;100264.59;1687795;83;21037;-68
2022/08/10 05:42:27;;;;;;;2.17;2.08;;;;;;;18.76;78.58;100264.28;1677582;83;21981;-68
2022/08/10 05:44:54;;;;;;;2.92;1.92;;;;;;;18.78;78.63;100262.09;1647580;87;21031;-69
2022/08/10 05:47:21;;;;;;;2.17;1.98;;;;;;;18.80;78.55;100254.45;1707125;84;21088;-70
2022/08/10 05:49:48;;;;;;;3.83;3.05;;;;;;;18.81;78.50;100253.32;1726063;81;21461;-68
2022/08/10 05:52:15;;;;;;;3.58;2.25;;;;;;;18.83;78.69;100256.58;1746671;81;21088;-68
2022/08/10 05:54:43;;;;;;;10.72;2.80;;;;;;;18.86;78.71;100254.63;1725374;81;21121;-68
2022/08/10 05:57:11;;;;;;;6.65;2.35;;;;;;;18.88;78.76;100261.43;1684639;84;21471;-68
2022/08/10 05:59:42;;;;;;;2.80;2.12;;;;;;;18.92;78.88;100273.38;1717290;81;21622;-70
2022/08/10 06:02:09;;;;;;;3.95;2.58;;;;;;;18.96;78.88;100281.22;1697878;83;21073;-67
2022/08/10 06:04:40;;;;;;;3.02;2.40;;;;;;;18.98;78.72;100271.40;1711223;83;21146;-69
2022/08/10 06:07:07;;;;;;;4.90;2.05;;;;;;;18.95;78.75;100269.23;1690692;83;21155;-68
2022/08/10 06:09:35;;;;;;;5.35;2.12;;;;;;;18.92;79.06;100258.92;1721825;81;21023;-68
2022/08/10 06:12:04;;;;;;;4.03;2.22;;;;;;;18.91;79.27;100269.56;1709968;83;21002;-67
2022/08/10 06:17:16;;;;;;;2.50;2.30;;;;;;;18.94;79.75;100282.62;1656177;85;21579;-66
2022/08/10 06:19:43;;;;;;;4.58;3.10;;;;;;;18.94;79.51;100280.72;1656970;84;21150;-68
2022/08/10 06:22:11;;;;;;;2.60;2.40;;;;;;;18.94;79.73;100291.63;1655232;86;21056;-69
2022/08/10 06:24:39;;;;;;;3.92;2.12;;;;;;;18.95;79.93;100286.41;1657701;86;21025;-67
2022/08/10 06:27:07;;;;;;;2.25;2.05;;;;;;;18.99;80.21;100282.58;1657368;86;21072;-69
2022/08/10 06:29:36;;;;;;;5.03;1.67;;;;;;;19.05;80.09;100284.11;1655635;84;21064;-69
2022/08/10 06:32:04;;;;;;;3.27;2.00;;;;;;;19.08;79.98;100280.28;1669885;84;21464;-68
2022/08/10 06:34:47;;;;;;;3.72;2.60;;;;;;;19.14;79.92;100276.91;1674889;84;21123;-67
2022/08/10 06:37:16;;;;;;;2.30;2.10;;;;;;;19.23;79.88;100277.09;1640373;86;21649;-68
2022/08/10 06:39:43;;;;;;;5.28;2.50;;;;;;;19.34;79.22;100269.02;1664768;84;20975;-69
2022/08/10 06:42:18;;;;;;;16.82;12.20;;;;;;;19.34;79.22;100269.02;1707134;83;20998;-68
2022/08/10 06:45:05;;;;;;;3.35;2.87;;;;;;;19.35;79.18;100270.09;1731231;82;21166;-69
2022/08/10 06:47:37;;;;;;;4.15;2.58;;;;;;;19.36;79.19;100270.91;1710930;83;21049;-68
2022/08/10 06:50:09;;;;;;;5.80;2.58;;;;;;;19.38;79.15;100281.77;1731115;82;21021;-69
2022/08/10 06:52:36;;;;;;;3.25;2.75;;;;;;;19.47;79.20;100294.27;1722517;82;21179;-72
2022/08/10 06:55:05;;;;;;;5.08;2.72;;;;;;;19.59;79.10;100293.26;1725722;82;21533;-70
2022/08/10 06:57:32;;;;;;;5.40;2.65;;;;;;;19.65;78.87;100290.72;1702761;83;21840;-70
2022/08/10 06:59:59;;;;;;;3.50;2.60;;;;;;;19.75;78.29;100285.66;1708060;82;21598;-68
2022/08/10 07:02:30;;;;;;;3.40;3.10;;;;;;;19.80;78.08;100280.13;1685129;84;21009;-70
2022/08/10 07:05:05;;;;;;;4.45;2.80;;;;;;;19.77;77.22;100277.42;1704734;84;21046;-69
2022/08/10 07:07:36;;;;;;;4.17;3.00;;;;;;;19.77;77.22;100277.42;1698704;83;21013;-70
2022/08/10 07:10:05;;;;;;;5.87;3.45;;;;;;;19.78;77.53;100284.52;1711150;82;21768;-69
2022/08/10 07:12:32;;;;;;;3.22;2.70;;;;;;;19.83;77.64;100286.36;1720674;82;21572;-69
2022/08/10 07:14:59;;;;;;;3.52;3.10;;;;;;;19.87;77.74;100291.48;1703420;83;21110;-68
2022/08/10 07:17:26;;;;;;;4.65;3.33;;;;;;;19.91;77.29;100288.41;1675421;83;21124;-69
2022/08/10 07:19:58;;;;;;;6.90;3.35;;;;;;;19.91;77.29;100288.41;1691368;83;21652;-68
2022/08/10 07:22:29;;;;;;;3.25;2.85;;;;;;;19.95;77.61;100301.16;1709065;83;21804;-70
2022/08/10 07:24:56;;;;;;;3.77;2.75;;;;;;;19.97;77.72;100298.96;1689838;83;21016;-67
2022/08/10 07:27:24;;;;;;;2.98;2.75;;;;;;;19.99;77.38;100291.30;1664945;85;20997;-69
2022/08/10 07:29:51;;;;;;;4.00;2.80;;;;;;;20.01;77.20;100288.25;1677001;83;21093;-69
2022/08/10 07:32:19;;;;;;;4.35;3.22;;;;;;;20.09;77.25;100294.97;1708960;83;21073;-70
2022/08/10 07:34:50;;;;;;;4.17;3.00;;;;;;;20.12;77.13;100286.98;1709952;82;21784;-71
2022/08/10 07:37:17;;;;;;;4.47;3.33;;;;;;;20.14;76.97;100290.23;1695578;83;21048;-71
2022/08/10 07:39:46;;;;;;;6.85;3.40;;;;;;;20.18;76.94;100289.08;1686112;83;21034;-70
2022/08/10 07:42:14;;;;;;;4.55;3.45;;;;;;;20.21;77.01;100287.11;1724668;81;21027;-72
2022/08/10 07:44:41;;;;;;;6.12;3.27;;;;;;;20.21;77.25;100285.19;1705563;83;21008;-72
2022/08/10 07:47:12;;;;;;;4.83;3.98;;;;;;;20.21;77.28;100274.81;1673116;85;21798;-69
2022/08/10 07:49:40;;;;;;;3.50;3.02;;;;;;;20.25;77.34;100275.83;1665834;83;21120;-70
2022/08/10 07:52:07;;;;;;;3.30;3.10;;;;;;;20.28;77.39;100276.61;1675507;84;21167;-69
2022/08/10 07:54:46;;;;;;;4.35;3.95;;;;;;;20.30;77.29;100277.11;1716405;83;21881;-69
2022/08/10 07:57:17;;;;;;;3.52;3.17;;;;;;;20.29;77.73;100272.75;1676057;85;21531;-68
2022/08/10 07:59:47;;;;;;;3.67;3.37;;;;;;;20.34;77.81;100269.41;1678410;83;21453;-69
2022/08/10 08:02:31;;;;;;;3.70;3.40;;;;;;;20.37;77.80;100272.11;1651607;85;21071;-68
2022/08/10 08:05:00;;;;;;;3.12;2.83;;;;;;;20.40;77.87;100259.20;1632672;86;21137;-69
2022/08/10 08:07:27;;;;;;;4.08;2.92;;;;;;;20.48;77.75;100263.19;1656083;86;21038;-68
2022/08/10 08:09:55;;;;;;;6.60;4.25;;;;;;;20.57;77.59;100267.65;1669609;84;21328;-70
2022/08/10 08:12:24;;;;;;;5.85;3.75;;;;;;;20.60;77.51;100268.41;1684844;84;21217;-68
2022/08/10 08:14:51;;;;;;;5.92;4.20;;;;;;;20.62;77.36;100273.58;1630669;86;21111;-68
2022/08/10 08:17:17;;;;;;;5.17;3.55;;;;;;;20.67;76.91;100271.53;1656007;86;21164;-68
2022/08/10 08:19:48;;;;;;;3.77;3.47;;;;;;;20.73;76.76;100273.06;1659896;85;21188;-70
2022/08/10 08:22:17;;;;;;;4.58;3.70;;;;;;;20.74;76.36;100277.42;1709566;83;21221;-70
2022/08/10 08:24:45;;;;;;;6.15;4.05;;;;;;;20.65;76.81;100281.16;1725963;82;21423;-70
2022/08/10 08:27:15;;;;;;;5.08;3.60;;;;;;;20.64;76.91;100278.98;1702577;83;21060;-69
2022/08/10 08:29:45;;;;;;;5.20;3.67;;;;;;;20.67;77.14;100274.27;1721003;81;20952;-70
2022/08/10 08:32:15;;;;;;;3.40;3.10;;;;;;;20.76;77.02;100282.05;1696500;82;21019;-70
2022/08/10 08:34:44;;;;;;;6.47;3.87;;;;;;;20.70;76.67;100282.44;1714004;83;21084;-71
2022/08/10 08:37:14;;;;;;;4.97;3.45;;;;;;;20.60;77.04;100286.72;1697437;83;21163;-70
2022/08/10 08:39:41;;;;;;;5.87;3.77;;;;;;;20.58;77.35;100275.27;1731525;81;21510;-71
2022/08/10 08:42:19;;;;;;;4.75;3.70;;;;;;;20.61;77.54;100279.59;1644331;84;21754;-71
2022/08/10 08:45:16;;;;;;;4.37;3.98;;;;;;;20.66;77.55;100278.69;1676320;83;21078;-70
2022/08/10 08:48:11;;;;;;;4.22;3.85;;;;;;;20.72;77.37;100276.91;1677566;84;21561;-69
2022/08/10 08:51:03;;;;;;;4.72;3.30;;;;;;;20.76;77.06;100273.03;1665511;84;21119;-70
2022/08/10 08:53:43;;;;;;;4.67;4.12;;;;;;;20.76;77.21;100271.11;1684360;84;21014;-71
2022/08/10 08:56:25;;;;;;;4.55;4.00;;;;;;;20.76;77.45;100276.58;1662292;85;20977;-69
2022/08/10 08:59:21;;;;;;;4.10;3.75;;;;;;;20.81;77.48;100270.98;1672978;84;21152;-70
2022/08/10 09:02:18;;;;;;;5.15;4.65;;;;;;;20.85;76.89;100270.66;1662937;84;21044;-71
2022/08/10 09:05:26;;;;;;;5.75;3.42;;;;;;;20.93;76.82;100266.95;1664531;85;21250;-71
2022/08/10 09:08:07;;;;;;;3.95;3.65;;;;;;;21.01;76.27;100263.48;1676686;84;21552;-70
2022/08/10 09:10:55;;;;;;;4.70;4.17;;;;;;;21.10;75.99;100265.20;1702870;81;21031;-73
2022/08/10 09:13:29;;;;;;;5.12;4.62;;;;;;;21.22;76.03;100275.12;1709477;83;20982;-74
2022/08/10 09:16:20;;;;;;;5.10;4.45;;;;;;;21.28;75.62;100276.64;1709973;83;21125;-70
2022/08/10 09:19:19;;;;;;;4.58;4.17;;;;;;;21.35;74.85;100281.67;1734349;82;21163;-72
2022/08/10 09:22:06;;;;;;;3.72;3.42;;;;;;;21.39;74.17;100279.94;1634375;86;21030;-74
2022/08/10 09:24:47;;;;;;;4.15;3.85;;;;;;;21.47;74.00;100284.70;1726012;82;21088;-73
2022/08/10 09:27:45;;;;;;;4.30;3.90;;;;;;;21.58;72.77;100273.76;1733096;82;21034;-73
2022/08/10 09:30:15;;;;;;;7.53;6.85;;;;;;;21.69;72.13;100268.86;1714940;82;21013;-72
2022/08/10 09:32:52;;;;;;;4.83;4.42;;;;;;;21.81;71.55;100268.33;1688816;82;21263;-73
2022/08/10 09:35:41;;;;;;;4.72;4.33;;;;;;;21.87;71.60;100262.40;1719718;83;20967;-73
2022/08/10 09:38:52;;;;;;;4.78;4.37;;;;;;;21.86;70.72;100264.91;1711626;83;21596;-72
2022/08/10 09:41:30;;;;;;;5.05;4.55;;;;;;;21.84;71.49;100264.96;1719059;82;21747;-72
2022/08/10 09:44:27;;;;;;;5.17;4.03;;;;;;;21.87;71.40;100265.14;1741262;81;20962;-72
2022/08/10 09:47:14;;;;;;;5.00;4.45;;;;;;;21.93;71.28;100267.20;1685874;83;21840;-79
2022/08/10 09:50:28;;;;;;;4.70;4.30;;;;;;;21.98;71.51;100263.00;1709121;83;21024;-80
2022/08/10 09:53:44;;;;;;;5.00;4.50;;;;;;;22.03;71.35;100262.32;1711831;82;21049;-81
2022/08/10 09:56:39;;;;;;;9.90;4.50;;;;;;;22.14;70.94;100255.47;1719402;82;21048;-77
2022/08/10 10:00:05;;;;;;;6.87;4.90;;;;;;;22.20;70.78;100253.97;1719152;83;21667;-75
2022/08/10 10:03:05;;;;;;;5.37;4.87;;;;;;;22.21;70.48;100256.38;1720332;81;21321;-73
2022/08/10 10:06:15;;;;;;;5.17;4.78;;;;;;;22.24;70.53;100257.70;1686399;83;21020;-79
2022/08/10 10:08:56;;;;;;;9.05;4.67;;;;;;;22.28;70.86;100261.44;1686413;83;21389;-74
2022/08/10 10:11:37;;;;;;;4.60;4.30;;;;;;;22.32;71.03;100265.16;1711495;82;21060;-78
2022/08/10 10:15:19;;;;;;;6.10;4.33;;;;;;;22.35;70.78;100263.96;1719746;83;21016;-84
2022/08/10 10:17:20;;;;;;;4.73;4.27;;;;;;;22.38;70.86;100246.91;1709060;83;21145;-77
2022/08/10 10:20:03;;;;;;;6.30;4.50;;;;;;;22.43;70.54;100250.07;1711223;82;21644;-77
2022/08/10 10:22:44;;;;;;;9.23;5.05;;;;;;;22.44;70.37;100247.59;1711086;82;21136;-77
2022/08/10 10:25:36;;;;;;;6.87;4.83;;;;;;;22.39;70.21;100255.38;1710532;83;21012;-76
2022/08/10 10:28:45;;;;;;;5.15;4.65;;;;;;;22.41;70.74;100257.79;1707986;83;21546;-78
2022/08/10 10:31:37;;;;;;;5.08;4.35;;;;;;;22.38;71.06;100257.87;1716228;81;39112;-79
2022/08/10 10:34:13;;;;;;;4.00;3.70;;;;;;;22.41;70.47;100252.30;1708065;82;20995;-78
2022/08/10 10:36:40;;;;;;;4.67;4.28;;;;;;;22.47;69.36;100259.28;1718425;83;20962;-79
2022/08/10 10:39:07;;;;;;;8.00;4.53;;;;;;;22.51;69.49;100250.11;1718362;83;21050;-80
2022/08/10 10:42:19;;;;;;;5.90;4.03;;;;;;;22.53;69.43;100251.98;1725695;81;21003;-76
2022/08/10 10:45:15;;;;;;;3.90;3.52;;;;;;;22.60;68.75;100246.03;1746134;82;21619;-76
2022/08/10 10:47:54;;;;;;;3.52;3.22;;;;;;;22.60;67.47;100242.73;1745878;82;21031;-74
2022/08/10 10:50:33;;;;;;;3.87;3.00;;;;;;;22.56;67.13;100233.52;1746089;82;21055;-71
2022/08/10 10:53:23;;;;;;;3.50;3.20;;;;;;;22.57;65.92;100234.33;1708457;82;20999;-76
2022/08/10 10:56:23;;;;;;;3.50;3.02;;;;;;;22.56;65.40;100237.64;1746173;82;21084;-74
2022/08/10 10:59:20;;;;;;;2.98;2.77;;;;;;;22.62;65.58;100243.80;1746286;82;21853;-73
2022/08/10 11:02:04;;;;;;;5.28;3.37;;;;;;;22.72;65.19;100241.36;1734450;82;21593;-72
2022/08/10 11:04:58;;;;;;;3.47;3.05;;;;;;;22.81;65.36;100239.45;1738019;82;21027;-74
2022/08/10 11:07:54;;;;;;;3.00;2.80;;;;;;;22.89;64.98;100253.75;1746225;82;21040;-75
2022/08/10 11:10:29;;;;;;;3.40;3.10;;;;;;;22.98;64.71;100234.82;1746139;82;21063;-76
2022/08/10 11:13:27;;;;;;;3.70;3.30;;;;;;;23.11;64.05;100233.09;1744981;82;21229;-79
2022/08/10 11:16:12;;;;;;;2.85;2.50;;;;;;;23.23;63.43;100225.59;1746245;82;21039;-73
2022/08/10 11:19:08;;;;;;;8.65;2.60;;;;;;;23.27;61.80;100223.25;1746227;82;20979;-72
2022/08/10 11:22:03;;;;;;;3.37;3.00;;;;;;;23.25;61.43;100218.67;1745022;82;21060;-72
2022/08/10 11:24:51;;;;;;;2.60;2.40;;;;;;;23.24;61.62;100212.92;1746206;82;21019;-72
2022/08/10 11:27:47;;;;;;;3.17;2.92;;;;;;;23.19;61.52;100215.83;1746197;82;21327;-74
2022/08/10 11:30:22;;;;;;;3.80;3.15;;;;;;;23.17;61.99;100218.62;1746196;82;21091;-73
2022/08/10 11:33:04;;;;;;;5.03;3.42;;;;;;;23.14;62.22;100228.89;1743024;81;21607;-82
2022/08/10 11:35:40;;;;;;;2.90;2.70;;;;;;;23.12;62.26;100223.70;1708345;82;21112;-74
2022/08/10 11:38:15;;;;;;;4.65;2.90;;;;;;;23.12;62.86;100221.55;1711267;83;21117;-80
2022/08/10 11:40:53;;;;;;;3.92;2.60;;;;;;;23.01;62.75;100223.23;1692732;83;21160;-74
2022/08/10 11:43:25;;;;;;;3.72;2.87;;;;;;;23.02;62.65;100221.30;1707082;82;21071;-76
2022/08/10 11:46:11;;;;;;;7.42;2.25;;;;;;;23.02;62.99;100224.03;1744913;82;21751;-76
2022/08/10 11:48:42;;;;;;;2.90;2.70;;;;;;;23.00;61.66;100211.19;1714939;82;21025;-75
2022/08/10 11:51:20;;;;;;;5.75;3.22;;;;;;;23.01;61.98;100209.51;1746089;82;21555;-72
2022/08/10 11:54:11;;;;;;;5.90;3.05;;;;;;;23.11;61.93;100204.84;1726700;82;21217;-77
2022/08/10 11:56:48;;;;;;;11.33;7.25;;;;;;;23.15;61.61;100202.50;1662149;86;21087;-74
2022/08/10 12:02:05;;;;;;;5.08;2.50;;;;;;;23.11;62.48;100206.21;1678640;85;21092;-69
2022/08/10 12:04:32;;;;;;;2.75;2.47;;;;;;;23.08;62.88;100213.69;1698873;83;21005;-69